createdAt,value
2023-02-19T00:00:55.623Z,53.70
2023-02-19T00:03:22.615Z,49.90
2023-02-19T00:05:49.586Z,55.67
2023-02-19T00:08:17.045Z,55.65
2023-02-19T00:10:45.405Z,52.28
2023-02-19T00:13:12.428Z,53.33
2023-02-19T00:15:39.427Z,52.80
2023-02-19T00:18:06.490Z,53.23
2023-02-19T00:20:33.509Z,53.13
2023-02-19T00:23:00.486Z,54.63
2023-02-19T00:25:27.409Z,51.78
2023-02-19T00:27:55.839Z,53.75
2023-02-19T00:30:22.827Z,47.33
2023-02-19T00:32:51.261Z,52.85
2023-02-19T00:35:18.347Z,56.10
2023-02-19T00:37:45.316Z,53.33
2023-02-19T00:40:12.359Z,49.15
2023-02-19T00:42:39.369Z,47.63
2023-02-19T00:45:08.367Z,47.88
2023-02-19T00:47:35.392Z,47.47
2023-02-19T00:50:03.408Z,46.42
2023-02-19T00:52:32.275Z,54.17
2023-02-19T00:54:59.264Z,52.33
2023-02-19T00:57:26.328Z,47.95
2023-02-19T00:59:53.381Z,56.33
2023-02-19T01:02:21.822Z,52.42
2023-02-19T01:04:48.947Z,52.85
2023-02-19T01:07:15.908Z,50.20
2023-02-19T01:09:42.958Z,47.80
2023-02-19T01:12:10.498Z,51.42
2023-02-19T01:14:37.529Z,53.03
2023-02-19T01:17:04.594Z,51.28
2023-02-19T01:19:32.985Z,49.27
2023-02-19T01:21:59.983Z,49.28
2023-02-19T01:24:27.029Z,49.95
2023-02-19T01:26:54.443Z,49.50
2023-02-19T01:29:21.396Z,46.55
2023-02-19T01:31:48.534Z,47.67
2023-02-19T01:34:15.465Z,45.85
2023-02-19T01:36:43.863Z,48.45
2023-02-19T01:39:11.080Z,47.88
2023-02-19T01:41:39.595Z,51.33
2023-02-19T01:44:11.462Z,46.03
2023-02-19T01:46:39.023Z,50.55
2023-02-19T01:49:07.593Z,49.90
2023-02-19T01:51:36.248Z,47.50
2023-02-19T01:54:06.384Z,46.78
2023-02-19T01:56:34.778Z,51.63
2023-02-19T01:59:02.145Z,47.22
2023-02-19T02:01:29.145Z,54.00
2023-02-19T02:03:56.165Z,69.65
2023-02-19T02:06:24.729Z,72.43
2023-02-19T02:09:11.671Z,69.20
2023-02-19T02:11:42.564Z,66.07
2023-02-19T02:14:09.558Z,57.53
2023-02-19T02:16:41.942Z,58.83
2023-02-19T02:19:18.026Z,59.08
2023-02-19T02:21:54.166Z,54.10
2023-02-19T02:24:32.200Z,60.05
2023-02-19T02:27:10.831Z,61.38
2023-02-19T02:30:11.175Z,63.88
2023-02-19T02:32:42.812Z,62.63
2023-02-19T02:35:11.465Z,64.03
2023-02-19T02:37:40.850Z,59.38
2023-02-19T02:40:08.618Z,63.85
2023-02-19T02:42:35.619Z,59.72
2023-02-19T02:45:35.295Z,59.17
2023-02-19T02:48:06.227Z,58.20
2023-02-19T02:50:35.924Z,52.75
2023-02-19T02:53:23.705Z,54.50
2023-02-19T02:55:52.209Z,51.78
2023-02-19T02:58:20.171Z,56.35
2023-02-19T03:01:09.073Z,52.33
2023-02-19T03:03:39.706Z,53.78
2023-02-19T03:06:09.343Z,51.38
2023-02-19T03:08:38.414Z,47.38
2023-02-19T03:11:24.754Z,50.97
2023-02-19T03:14:11.519Z,46.93
2023-02-19T03:16:59.329Z,49.60
2023-02-19T03:19:29.070Z,54.15
2023-02-19T03:21:57.827Z,52.08
2023-02-19T03:24:45.706Z,49.58
2023-02-19T03:27:13.830Z,48.13
2023-02-19T03:29:41.302Z,52.67
2023-02-19T03:32:11.173Z,48.95
2023-02-19T03:34:42.682Z,49.90
2023-02-19T03:37:11.849Z,49.40
2023-02-19T03:39:44.594Z,49.53
2023-02-19T03:42:16.862Z,51.67
2023-02-19T03:44:46.533Z,47.72
2023-02-19T03:47:16.130Z,51.88
2023-02-19T03:49:48.656Z,50.13
2023-02-19T03:52:19.163Z,48.43
2023-02-19T03:54:48.435Z,49.72
2023-02-19T03:57:19.244Z,47.17
2023-02-19T03:59:49.076Z,47.92
2023-02-19T04:02:18.700Z,43.13
2023-02-19T04:04:50.744Z,45.47
2023-02-19T04:07:18.064Z,47.55
2023-02-19T04:09:47.098Z,43.67
2023-02-19T04:12:15.054Z,49.55
2023-02-19T04:14:44.114Z,53.33
2023-02-19T04:17:14.359Z,52.22
2023-02-19T04:19:42.380Z,55.22
2023-02-19T04:22:12.441Z,45.58
2023-02-19T04:24:40.704Z,47.15
2023-02-19T04:27:09.150Z,49.35
2023-02-19T04:29:39.033Z,45.57
2023-02-19T04:32:06.457Z,47.88
2023-02-19T04:34:33.402Z,43.00
2023-02-19T04:37:00.333Z,42.30
2023-02-19T04:39:29.088Z,42.05
2023-02-19T04:41:56.057Z,44.20
2023-02-19T04:44:23.390Z,44.38
2023-02-19T04:46:50.387Z,42.28
2023-02-19T04:49:17.381Z,42.78
2023-02-19T04:51:44.528Z,40.50
2023-02-19T04:54:11.470Z,41.30
2023-02-19T04:56:39.889Z,44.17
2023-02-19T04:59:06.995Z,41.28
2023-02-19T05:01:34.130Z,38.05
2023-02-19T05:04:01.152Z,40.67
2023-02-19T05:06:28.313Z,41.77
2023-02-19T05:08:55.778Z,37.47
2023-02-19T05:11:24.008Z,39.05
2023-02-19T05:13:52.392Z,42.80
2023-02-19T05:16:19.369Z,41.72
2023-02-19T05:18:46.977Z,50.97
2023-02-19T05:21:14.254Z,50.50
2023-02-19T05:23:41.258Z,45.13
2023-02-19T05:26:09.160Z,46.38
2023-02-19T05:28:36.243Z,43.83
2023-02-19T05:31:07.044Z,43.97
2023-02-19T05:33:34.188Z,40.10
2023-02-19T05:36:04.804Z,40.83
2023-02-19T05:38:31.666Z,37.83
2023-02-19T05:41:07.051Z,38.53
2023-02-19T05:43:34.076Z,39.80
2023-02-19T05:46:01.078Z,39.17
2023-02-19T05:48:29.687Z,35.90
2023-02-19T05:51:01.191Z,38.85
2023-02-19T05:53:28.212Z,35.65
2023-02-19T05:55:55.174Z,40.63
2023-02-19T05:58:22.329Z,39.65
2023-02-19T06:00:49.451Z,35.08
2023-02-19T06:03:16.433Z,34.55
2023-02-19T06:05:44.934Z,33.67
2023-02-19T06:08:13.084Z,39.70
2023-02-19T06:10:43.143Z,34.70
2023-02-19T06:13:10.596Z,34.90
2023-02-19T06:15:37.684Z,33.65
2023-02-19T06:18:04.867Z,35.65
2023-02-19T06:20:33.106Z,37.60
2023-02-19T06:23:01.753Z,36.95
2023-02-19T06:25:28.674Z,40.08
2023-02-19T06:27:55.730Z,39.03
2023-02-19T06:30:22.758Z,39.05
2023-02-19T06:32:51.555Z,37.73
2023-02-19T06:35:18.575Z,39.35
2023-02-19T06:37:46.581Z,38.63
2023-02-19T06:40:15.060Z,41.47
2023-02-19T06:42:43.014Z,40.58
2023-02-19T06:45:09.922Z,36.43
2023-02-19T06:47:36.876Z,37.83
2023-02-19T06:50:04.068Z,39.97
2023-02-19T06:52:31.570Z,39.25
2023-02-19T06:54:58.514Z,38.17
2023-02-19T06:57:26.851Z,38.17
2023-02-19T06:59:53.920Z,38.45
2023-02-19T07:02:21.034Z,39.63
2023-02-19T07:04:48.085Z,37.05
2023-02-19T07:07:15.108Z,40.78
2023-02-19T07:09:43.998Z,52.73
2023-02-19T07:12:11.078Z,60.70
2023-02-19T07:14:39.422Z,45.88
2023-02-19T07:17:06.419Z,42.53
2023-02-19T07:19:33.834Z,39.40
2023-02-19T07:22:01.408Z,44.53
2023-02-19T07:24:28.529Z,45.80
2023-02-19T07:26:55.474Z,41.42
2023-02-19T07:29:22.697Z,41.72
2023-02-19T07:31:51.070Z,40.10
2023-02-19T07:34:18.131Z,40.03
2023-02-19T07:36:45.100Z,41.50
2023-02-19T07:39:13.320Z,39.72
2023-02-19T07:41:40.785Z,41.00
2023-02-19T07:44:08.013Z,37.15
2023-02-19T07:46:34.937Z,46.23
2023-02-19T07:49:03.344Z,53.00
2023-02-19T07:51:30.327Z,50.45
2023-02-19T07:53:57.671Z,49.42
2023-02-19T07:56:24.636Z,61.55
2023-02-19T07:58:51.681Z,66.70
2023-02-19T08:01:19.578Z,67.05
2023-02-19T08:03:48.873Z,73.28
2023-02-19T08:06:18.737Z,57.83
2023-02-19T08:08:45.792Z,57.13
2023-02-19T08:11:31.258Z,51.17
2023-02-19T08:13:58.417Z,55.83
2023-02-19T08:16:40.789Z,52.22
2023-02-19T08:19:09.349Z,55.35
2023-02-19T08:21:37.848Z,57.22
2023-02-19T08:24:05.283Z,54.27
2023-02-19T08:26:32.761Z,49.83
2023-02-19T08:28:59.823Z,47.70
2023-02-19T08:31:27.361Z,45.85
2023-02-19T08:33:54.842Z,46.85
2023-02-19T08:36:21.814Z,48.93
2023-02-19T08:38:50.202Z,44.70
2023-02-19T08:41:22.627Z,51.58
2023-02-19T08:43:49.862Z,42.97
2023-02-19T08:46:16.847Z,44.20
2023-02-19T08:48:43.813Z,46.93
2023-02-19T08:51:12.387Z,47.95
2023-02-19T08:53:40.523Z,46.67
2023-02-19T08:56:10.168Z,41.53
2023-02-19T08:58:37.638Z,45.92
2023-02-19T09:01:08.310Z,45.80
2023-02-19T09:03:35.750Z,45.03
2023-02-19T09:06:02.713Z,49.67
2023-02-19T09:08:29.667Z,51.55
2023-02-19T09:11:00.384Z,57.10
2023-02-19T09:13:28.714Z,54.33
2023-02-19T09:15:57.302Z,50.67
2023-02-19T09:18:25.050Z,50.85
2023-02-19T09:20:52.042Z,63.38
2023-02-19T09:23:19.148Z,58.60
2023-02-19T09:25:46.125Z,62.37
2023-02-19T09:28:13.098Z,46.13
2023-02-19T09:30:41.496Z,47.60
2023-02-19T09:33:08.533Z,46.78
2023-02-19T09:35:38.250Z,49.50
2023-02-19T09:38:05.232Z,40.37
2023-02-19T09:40:32.426Z,43.47
2023-02-19T09:43:00.907Z,41.53
2023-02-19T09:45:29.316Z,37.63
2023-02-19T09:47:59.095Z,69.47
2023-02-19T09:50:28.660Z,45.93
2023-02-19T09:52:58.204Z,52.05
2023-02-19T09:55:30.190Z,170.40
2023-02-19T09:57:58.152Z,149.93
2023-02-19T10:00:25.977Z,49.53
2023-02-19T10:02:53.935Z,50.33
2023-02-19T10:05:23.573Z,48.17
2023-02-19T10:07:52.116Z,46.28
2023-02-19T10:10:22.760Z,49.08
2023-02-19T10:12:51.224Z,44.97
2023-02-19T10:15:19.699Z,41.17
2023-02-19T10:17:46.641Z,41.47
2023-02-19T10:20:15.054Z,40.25
2023-02-19T10:22:43.648Z,40.58
2023-02-19T10:25:14.004Z,38.00
2023-02-19T10:27:41.138Z,40.17
2023-02-19T10:30:14.605Z,36.80
2023-02-19T10:32:57.753Z,33.05
2023-02-19T10:35:25.100Z,29.95
2023-02-19T10:37:53.828Z,30.73
2023-02-19T10:40:21.710Z,29.70
2023-02-19T10:42:49.824Z,31.15
2023-02-19T10:45:21.785Z,36.53
2023-02-19T10:47:49.382Z,32.08
2023-02-19T10:50:20.697Z,29.13
2023-02-19T10:52:51.404Z,29.03
2023-02-19T10:55:25.852Z,27.65
2023-02-19T10:57:53.060Z,29.13
2023-02-19T11:00:22.981Z,27.77
2023-02-19T11:02:50.558Z,27.60
2023-02-19T11:05:20.078Z,26.10
2023-02-19T11:07:48.266Z,25.92
2023-02-19T11:10:28.306Z,26.35
2023-02-19T11:12:57.594Z,23.77
2023-02-19T11:15:27.620Z,24.92
2023-02-19T11:17:55.625Z,25.43
2023-02-19T11:20:22.855Z,30.33
2023-02-19T11:22:50.285Z,26.38
2023-02-19T11:25:21.404Z,25.33
2023-02-19T11:28:02.705Z,24.27
2023-02-19T11:30:40.118Z,21.80
2023-02-19T11:33:24.515Z,23.15
2023-02-19T11:35:52.631Z,25.30
2023-02-19T11:38:21.727Z,24.08
2023-02-19T11:40:53.449Z,23.60
2023-02-19T11:43:38.326Z,28.60
2023-02-19T11:46:09.899Z,25.55
2023-02-19T11:48:43.409Z,23.30
2023-02-19T11:51:16.070Z,26.38
2023-02-19T11:53:47.494Z,27.77
2023-02-19T11:56:17.085Z,25.87
2023-02-19T11:59:05.388Z,25.52
2023-02-19T12:01:43.975Z,25.55
2023-02-19T12:04:24.134Z,23.20
2023-02-19T12:06:53.655Z,22.70
2023-02-19T12:09:35.565Z,22.63
2023-02-19T12:12:09.315Z,27.02
2023-02-19T12:14:50.643Z,21.45
2023-02-19T12:17:24.882Z,47.60
2023-02-19T12:19:58.153Z,25.90
2023-02-19T12:22:28.139Z,27.80
2023-02-19T12:25:13.769Z,25.35
2023-02-19T12:27:47.477Z,26.42
2023-02-19T12:30:25.433Z,25.00
2023-02-19T12:33:18.695Z,26.40
2023-02-19T12:35:47.906Z,23.50
2023-02-19T12:38:20.895Z,99.78
2023-02-19T12:40:55.724Z,55.13
2023-02-19T12:43:23.765Z,22.85
2023-02-19T12:45:53.466Z,18.48
2023-02-19T12:48:25.232Z,18.27
2023-02-19T12:50:55.639Z,18.05
2023-02-19T12:53:32.041Z,20.25
2023-02-19T12:56:00.705Z,19.13
2023-02-19T12:58:32.424Z,18.45
2023-02-19T13:00:59.970Z,19.47
2023-02-19T13:03:31.027Z,20.25
2023-02-19T13:06:01.920Z,18.70
2023-02-19T13:08:34.185Z,15.00
2023-02-19T13:11:05.486Z,16.30
2023-02-19T13:13:38.590Z,15.63
2023-02-19T13:16:10.142Z,11.60
2023-02-19T13:18:41.342Z,13.52
2023-02-19T13:21:11.759Z,15.15
2023-02-19T13:24:00.017Z,17.67
2023-02-19T13:26:43.397Z,15.60
2023-02-19T13:29:16.179Z,17.08
2023-02-19T13:31:51.231Z,16.00
2023-02-19T13:34:25.966Z,16.80
2023-02-19T13:36:53.770Z,15.43
2023-02-19T13:39:22.011Z,12.80
2023-02-19T13:41:50.594Z,13.15
2023-02-19T13:44:18.973Z,13.07
2023-02-19T13:46:47.010Z,13.13
2023-02-19T13:49:44.040Z,14.43
2023-02-19T13:52:29.344Z,13.90
2023-02-19T13:55:11.441Z,12.73
2023-02-19T13:57:41.762Z,13.68
2023-02-19T14:00:37.923Z,11.98
2023-02-19T14:03:20.413Z,13.73
2023-02-19T14:06:01.008Z,14.27
2023-02-19T14:08:42.844Z,13.30
2023-02-19T14:11:14.330Z,12.77
2023-02-19T14:14:09.648Z,11.90
2023-02-19T14:16:54.697Z,9.70
2023-02-19T14:19:40.524Z,11.17
2023-02-19T14:22:22.502Z,56.40
2023-02-19T14:24:52.724Z,12.98
2023-02-19T14:27:20.051Z,14.80
2023-02-19T14:29:49.741Z,9.85
2023-02-19T14:32:19.427Z,9.43
2023-02-19T14:34:46.697Z,11.25
2023-02-19T14:37:17.129Z,11.77
2023-02-19T14:39:44.809Z,11.32
2023-02-19T14:42:16.042Z,11.73
2023-02-19T14:44:47.529Z,11.43
2023-02-19T14:47:15.703Z,15.63
2023-02-19T14:49:46.279Z,11.18
2023-02-19T14:52:15.962Z,11.45
2023-02-19T14:54:45.361Z,15.60
2023-02-19T14:57:16.157Z,14.07
2023-02-19T14:59:52.280Z,14.15
2023-02-19T15:02:21.266Z,13.07
2023-02-19T15:04:48.645Z,11.95
2023-02-19T15:07:19.227Z,13.65
2023-02-19T15:09:48.235Z,13.63
2023-02-19T15:12:18.861Z,13.05
2023-02-19T15:14:46.450Z,13.15
2023-02-19T15:17:16.198Z,13.40
2023-02-19T15:19:44.178Z,13.20
2023-02-19T15:22:14.168Z,13.97
2023-02-19T15:24:44.029Z,20.67
2023-02-19T15:27:15.615Z,12.55
2023-02-19T15:29:46.690Z,21.95
2023-02-19T15:32:16.591Z,16.70
2023-02-19T15:34:53.495Z,16.13
2023-02-19T15:37:22.121Z,15.82
2023-02-19T15:39:50.650Z,13.18
2023-02-19T15:42:18.468Z,13.48
2023-02-19T15:44:49.664Z,11.82
2023-02-19T15:47:20.042Z,11.27
2023-02-19T15:49:50.214Z,16.13
2023-02-19T15:52:20.900Z,11.48
2023-02-19T15:54:51.579Z,15.30
2023-02-19T15:57:21.568Z,13.15
2023-02-19T15:59:50.987Z,12.67
2023-02-19T16:02:18.308Z,12.00
2023-02-19T16:04:45.646Z,54.13
2023-02-19T16:07:23.303Z,18.70
2023-02-19T16:10:04.481Z,16.17
2023-02-19T16:12:32.606Z,13.70
2023-02-19T16:15:11.406Z,14.32
2023-02-19T16:17:42.204Z,16.90
2023-02-19T16:20:17.356Z,6.38
2023-02-19T16:22:44.838Z,6.55
2023-02-19T16:25:23.826Z,5.87
2023-02-19T16:27:51.731Z,6.55
2023-02-19T16:30:27.005Z,7.50
2023-02-19T16:33:12.878Z,6.20
2023-02-19T16:35:40.221Z,5.63
2023-02-19T16:38:12.446Z,7.87
2023-02-19T16:41:04.166Z,4.65
2023-02-19T16:43:37.809Z,4.40
2023-02-19T16:46:07.702Z,6.00
2023-02-19T16:48:34.868Z,6.47
2023-02-19T16:51:03.091Z,6.87
2023-02-19T16:53:30.636Z,6.05
2023-02-19T16:55:57.927Z,6.55
2023-02-19T16:58:25.069Z,7.47
2023-02-19T17:00:57.530Z,8.05
2023-02-19T17:03:26.370Z,25.67
2023-02-19T17:05:54.015Z,14.85
2023-02-19T17:08:25.286Z,14.90
2023-02-19T17:10:54.058Z,7.22
2023-02-19T17:13:22.837Z,12.73
2023-02-19T17:15:50.425Z,9.03
2023-02-19T17:18:17.610Z,6.10
2023-02-19T17:20:48.620Z,7.65
2023-02-19T17:23:15.973Z,8.40
2023-02-19T17:25:43.470Z,4.63
2023-02-19T17:28:10.804Z,6.93
2023-02-19T17:30:40.122Z,5.13
2023-02-19T17:33:07.698Z,5.97
2023-02-19T17:35:35.022Z,7.47
2023-02-19T17:38:09.593Z,5.43
2023-02-19T17:40:37.610Z,5.07
2023-02-19T17:43:04.985Z,7.45
2023-02-19T17:45:33.030Z,6.97
2023-02-19T17:48:00.308Z,4.60
2023-02-19T17:50:29.314Z,7.03
2023-02-19T17:52:56.348Z,6.17
2023-02-19T17:55:25.442Z,4.03
2023-02-19T17:57:53.256Z,3.30
2023-02-19T18:00:21.524Z,6.60
2023-02-19T18:02:49.141Z,3.60
2023-02-19T18:05:16.494Z,3.60
2023-02-19T18:07:43.882Z,7.53
2023-02-19T18:10:11.825Z,4.55
2023-02-19T18:12:42.797Z,5.00
2023-02-19T18:15:11.916Z,4.10
2023-02-19T18:17:39.197Z,4.07
2023-02-19T18:20:07.354Z,5.30
2023-02-19T18:22:34.901Z,4.38
2023-02-19T18:25:02.092Z,4.28
2023-02-19T18:27:34.155Z,3.92
2023-02-19T18:30:02.981Z,3.47
2023-02-19T18:32:30.822Z,3.85
2023-02-19T18:34:59.173Z,4.72
2023-02-19T18:37:27.221Z,5.20
2023-02-19T18:39:54.657Z,4.35
2023-02-19T18:42:22.534Z,4.50
2023-02-19T18:44:50.341Z,7.13
2023-02-19T18:47:19.834Z,3.72
2023-02-19T18:49:49.591Z,4.63
2023-02-19T18:52:20.471Z,3.53
2023-02-19T18:54:47.610Z,2.70
2023-02-19T18:57:15.527Z,2.72
2023-02-19T18:59:45.176Z,2.58
2023-02-19T19:02:12.512Z,2.60
2023-02-19T19:04:41.978Z,3.83
2023-02-19T19:07:10.334Z,3.13
2023-02-19T19:09:37.757Z,4.20
2023-02-19T19:12:05.765Z,3.97
2023-02-19T19:14:32.896Z,3.35
2023-02-19T19:17:00.456Z,3.15
2023-02-19T19:19:27.693Z,4.27
2023-02-19T19:21:56.877Z,2.70
2023-02-19T19:24:24.891Z,3.22
2023-02-19T19:26:52.643Z,2.50
2023-02-19T19:29:22.176Z,2.10
2023-02-19T19:31:50.128Z,1.80
2023-02-19T19:34:17.778Z,3.35
2023-02-19T19:36:45.332Z,2.17
2023-02-19T19:39:14.222Z,1.67
2023-02-19T19:41:41.748Z,1.95
2023-02-19T19:44:09.350Z,2.10
2023-02-19T19:46:42.767Z,1.45
2023-02-19T19:49:10.248Z,2.20
2023-02-19T19:51:38.044Z,2.97
2023-02-19T19:54:05.533Z,4.22
2023-02-19T19:56:39.663Z,3.17
2023-02-19T19:59:06.961Z,3.28
2023-02-19T20:01:34.366Z,3.75
2023-02-19T20:04:02.174Z,1.60
2023-02-19T20:06:31.100Z,1.83
2023-02-19T20:08:58.631Z,1.00
2023-02-19T20:11:26.118Z,1.20
2023-02-19T20:13:54.471Z,1.45
2023-02-19T20:16:25.508Z,1.67
2023-02-19T20:18:53.308Z,2.35
2023-02-19T20:21:20.587Z,1.70
2023-02-19T20:23:47.964Z,1.42
2023-02-19T20:26:21.118Z,2.25
2023-02-19T20:28:48.430Z,2.63
2023-02-19T20:31:17.455Z,2.58
2023-02-19T20:33:44.955Z,3.10
2023-02-19T20:36:12.199Z,1.88
2023-02-19T20:38:39.758Z,2.67
2023-02-19T20:41:07.057Z,2.15
2023-02-19T20:43:34.713Z,3.40
2023-02-19T20:46:02.024Z,2.37
2023-02-19T20:48:30.685Z,3.92
2023-02-19T20:50:59.719Z,2.22
2023-02-19T20:53:27.239Z,4.40
2023-02-19T20:55:55.461Z,2.20
2023-02-19T20:58:22.692Z,2.30
2023-02-19T21:00:49.835Z,3.95
2023-02-19T21:03:16.993Z,3.63
2023-02-19T21:05:45.849Z,2.47
2023-02-19T21:08:14.137Z,3.50
2023-02-19T21:10:41.579Z,2.50
2023-02-19T21:13:08.770Z,2.83
2023-02-19T21:15:35.875Z,3.15
2023-02-19T21:18:05.164Z,3.10
2023-02-19T21:20:32.600Z,2.35
2023-02-19T21:23:02.007Z,4.27
2023-02-19T21:25:31.517Z,5.10
2023-02-19T21:27:58.515Z,2.97
2023-02-19T21:30:25.623Z,3.33
2023-02-19T21:32:52.945Z,2.30
2023-02-19T21:35:20.156Z,1.77
2023-02-19T21:37:47.202Z,3.13
2023-02-19T21:40:16.054Z,2.47
2023-02-19T21:42:43.292Z,3.03
2023-02-19T21:45:10.343Z,2.90
2023-02-19T21:47:37.611Z,3.50
2023-02-19T21:50:05.529Z,4.55
2023-02-19T21:52:33.080Z,3.05
2023-02-19T21:55:00.040Z,3.28
2023-02-19T21:57:28.940Z,3.90
2023-02-19T21:59:55.918Z,3.33
2023-02-19T22:02:22.924Z,3.80
2023-02-19T22:04:56.218Z,3.35
2023-02-19T22:07:23.344Z,8.48
2023-02-19T22:09:51.725Z,2.15
2023-02-19T22:12:19.257Z,2.30
2023-02-19T22:14:47.622Z,2.58
2023-02-19T22:17:14.567Z,4.28
2023-02-19T22:19:41.864Z,3.10
2023-02-19T22:22:09.277Z,3.60
2023-02-19T22:24:36.226Z,4.37
2023-02-19T22:27:03.193Z,4.15
2023-02-19T22:29:30.330Z,3.35
2023-02-19T22:31:58.748Z,4.50
2023-02-19T22:34:25.834Z,2.15
2023-02-19T22:36:52.793Z,4.17
2023-02-19T22:39:20.482Z,3.67
2023-02-19T22:41:49.805Z,4.20
2023-02-19T22:44:16.867Z,6.97
2023-02-19T22:46:48.414Z,5.82
2023-02-19T22:49:17.608Z,5.97
2023-02-19T22:51:48.613Z,6.10
2023-02-19T22:54:16.272Z,6.35
2023-02-19T22:56:43.443Z,5.03
2023-02-19T22:59:11.207Z,5.60
2023-02-19T23:01:38.312Z,5.27
2023-02-19T23:04:05.645Z,4.22
2023-02-19T23:06:37.925Z,3.88
2023-02-19T23:09:06.119Z,3.72
2023-02-19T23:11:34.078Z,6.13
2023-02-19T23:14:01.090Z,5.70
2023-02-19T23:16:28.137Z,3.70
2023-02-19T23:18:55.437Z,3.80
2023-02-19T23:21:23.369Z,3.80
2023-02-19T23:23:51.958Z,5.78
2023-02-19T23:26:19.026Z,5.03
2023-02-19T23:28:46.463Z,4.70
2023-02-19T23:31:14.145Z,5.50
2023-02-19T23:33:41.675Z,4.63
2023-02-19T23:36:09.186Z,5.25
2023-02-19T23:38:36.944Z,4.73
2023-02-19T23:41:08.625Z,4.70
2023-02-19T23:43:35.560Z,4.43
2023-02-19T23:46:02.628Z,5.85
2023-02-19T23:48:29.783Z,5.55
2023-02-19T23:50:56.819Z,4.93
2023-02-19T23:53:24.124Z,5.07
2023-02-19T23:55:51.860Z,6.65
2023-02-19T23:58:20.259Z,5.95
